Time;durP1;ratioP1;P1;durP2;ratioP2;P2;SDS_P1;SDS_P2;PMS_P1;PMS_P2;Temp;Humidity;BMP_temperature;BMP_pressure;BME280_temperature;BME280_humidity;BME280_pressure;Samples;Min_cycle;Max_cycle;Signal;HPM_P1;HPM_P2
2022/06/29 08:30:05;;;;;;;3.67;0.90;;;18.20;99.90;;;;;;5065517;28;20395;-47
2022/06/29 08:32:32;;;;;;;4.03;0.90;;;18.20;99.90;;;;;;5035910;28;20047;-50
2022/06/29 08:35:01;;;;;;;4.65;1.27;;;18.40;99.90;;;;;;5042375;28;20037;-49
2022/06/29 08:37:34;;;;;;;3.25;1.00;;;18.60;99.90;;;;;;5041443;28;20049;-48
2022/06/29 08:40:01;;;;;;;2.53;0.85;;;19.00;99.90;;;;;;5045657;28;20392;-49
2022/06/29 08:42:28;;;;;;;7.18;1.10;;;19.20;99.90;;;;;;5043287;28;20041;-49
2022/06/29 08:44:55;;;;;;;3.35;0.90;;;19.30;99.90;;;;;;5034644;28;20555;-49
2022/06/29 08:47:21;;;;;;;3.35;0.90;;;19.40;99.10;;;;;;5039677;28;20045;-51
2022/06/29 08:49:48;;;;;;;3.53;0.90;;;19.40;99.00;;;;;;5048973;28;20041;-55
2022/06/29 08:52:15;;;;;;;3.25;0.90;;;19.50;98.80;;;;;;5037214;28;20442;-53
2022/06/29 08:54:41;;;;;;;2.72;0.90;;;19.40;98.70;;;;;;5040861;28;20033;-53
2022/06/29 08:57:08;;;;;;;3.17;1.10;;;19.40;98.40;;;;;;5037996;28;20076;-49
2022/06/29 08:59:35;;;;;;;3.15;0.95;;;19.40;98.50;;;;;;5031772;28;20053;-47
2022/06/29 09:02:22;;;;;;;2.40;0.73;;;19.30;99.20;;;;;;5034626;28;20377;-54
2022/06/29 09:04:50;;;;;;;2.85;0.65;;;19.30;99.20;;;;;;5033954;28;20037;-52
2022/06/29 09:07:17;;;;;;;3.53;0.85;;;19.30;99.50;;;;;;5041197;28;20489;-50
2022/06/29 09:09:44;;;;;;;4.03;1.20;;;19.20;99.90;;;;;;5040828;28;20080;-50
2022/06/29 09:12:10;;;;;;;8.77;1.15;;;19.20;99.90;;;;;;5035291;28;20033;-52
2022/06/29 09:14:37;;;;;;;3.60;1.23;;;19.20;99.90;;;;;;5041311;28;20477;-53
2022/06/29 09:17:11;;;;;;;7.10;1.10;;;19.20;99.90;;;;;;5036890;28;20361;-53
2022/06/29 09:19:38;;;;;;;4.38;1.20;;;19.20;99.90;;;;;;5031108;28;20441;-52
2022/06/29 09:22:05;;;;;;;2.50;1.00;;;19.30;99.90;;;;;;5029435;28;20065;-47
2022/06/29 09:24:32;;;;;;;3.92;1.30;;;19.40;99.90;;;;;;5034446;28;20470;-47
2022/06/29 09:27:19;;;;;;;2.83;0.80;;;19.40;99.90;;;;;;5037353;28;20049;-52
2022/06/29 09:29:46;;;;;;;3.22;1.00;;;19.50;99.90;;;;;;5040547;28;20492;-49
2022/06/29 09:32:14;;;;;;;7.15;1.65;;;19.50;99.90;;;;;;5039452;28;20120;-53
2022/06/29 09:34:43;;;;;;;8.68;1.90;;;19.50;99.90;;;;;;5038822;28;20037;-48
2022/06/29 09:37:12;;;;;;;4.15;1.13;;;19.50;99.90;;;;;;5034608;28;20048;-48
2022/06/29 09:39:38;;;;;;;5.03;1.40;;;19.40;99.90;;;;;;5035742;28;20104;-56
2022/06/29 09:42:05;;;;;;;2.13;0.88;;;19.30;99.90;;;;;;5023050;28;20046;-55
2022/06/29 09:44:32;;;;;;;1.88;0.73;;;19.20;99.90;;;;;;5022601;28;20042;-45
2022/06/29 09:46:59;;;;;;;2.63;0.80;;;19.00;99.90;;;;;;5023360;28;20045;-50
2022/06/29 09:49:26;;;;;;;2.80;0.82;;;18.80;99.90;;;;;;5033850;28;20049;-48
2022/06/29 09:51:53;;;;;;;2.10;0.70;;;18.50;99.90;;;;;;5022684;28;20067;-53
2022/06/29 09:54:20;;;;;;;3.30;0.70;;;18.30;99.90;;;;;;5024439;28;20038;-51
2022/06/29 09:56:50;;;;;;;2.58;0.90;;;18.20;99.90;;;;;;5020455;28;20041;-53
2022/06/29 09:59:17;;;;;;;3.40;0.80;;;18.20;99.90;;;;;;5026717;28;20037;-51
2022/06/29 10:04:29;;;;;;;1.70;0.80;;;18.30;99.90;;;;;;5020016;28;20396;-52
2022/06/29 10:06:56;;;;;;;1.88;0.70;;;18.40;99.90;;;;;;5020611;28;20046;-56
2022/06/29 10:09:23;;;;;;;2.35;0.90;;;18.40;99.90;;;;;;5022222;28;20048;-53
2022/06/29 10:14:35;;;;;;;2.10;0.85;;;18.30;99.90;;;;;;5023479;28;20468;-51
2022/06/29 10:17:01;;;;;;;4.82;1.65;;;18.20;99.90;;;;;;5020629;28;20429;-48
2022/06/29 10:19:31;;;;;;;7.15;1.67;;;17.90;99.90;;;;;;5023365;28;20037;-51
2022/06/29 10:21:59;;;;;;;4.55;1.70;;;17.60;99.90;;;;;;5021139;28;20446;-52
2022/06/29 10:24:26;;;;;;;6.63;2.35;;;17.40;99.90;;;;;;5015096;28;20033;-49
2022/06/29 10:26:53;;;;;;;6.32;2.10;;;17.40;99.90;;;;;;5015950;28;20046;-53
2022/06/29 10:29:20;;;;;;;9.60;2.25;;;17.40;99.90;;;;;;5020124;28;20052;-49
2022/06/29 10:31:47;;;;;;;3.90;1.70;;;17.30;99.90;;;;;;5022321;28;20547;-52
2022/06/29 10:34:17;;;;;;;5.75;2.15;;;17.30;99.90;;;;;;5031948;28;20045;-51
2022/06/29 10:36:43;;;;;;;11.48;7.95;;;17.40;99.90;;;;;;5025380;28;20077;-47
2022/06/29 10:39:10;;;;;;;8.13;2.50;;;17.40;99.90;;;;;;5020870;28;20042;-52
2022/06/29 10:44:23;;;;;;;5.90;1.60;;;17.40;99.90;;;;;;5022931;28;20042;-54
2022/06/29 10:46:49;;;;;;;9.77;2.33;;;17.30;99.90;;;;;;5029484;28;20478;-49
2022/06/29 10:49:16;;;;;;;8.25;2.10;;;17.30;99.90;;;;;;5031026;28;20531;-53
2022/06/29 10:51:43;;;;;;;10.15;2.30;;;17.40;99.90;;;;;;5020759;28;20034;-52
2022/06/29 10:54:10;;;;;;;6.47;2.13;;;17.40;99.90;;;;;;5023966;28;20046;-58
2022/06/29 10:56:46;;;;;;;6.32;2.20;;;17.40;99.90;;;;;;5030127;28;20037;-56
2022/06/29 10:59:12;;;;;;;6.25;2.05;;;17.40;99.90;;;;;;5028654;28;20037;-53
2022/06/29 11:01:39;;;;;;;4.60;1.73;;;17.40;99.90;;;;;;5037228;28;20038;-51
2022/06/29 11:04:06;;;;;;;7.50;2.00;;;17.40;99.90;;;;;;5022816;28;20040;-55
2022/06/29 11:12:18;;;;;;;6.22;1.60;;;17.80;99.90;;;;;;5023682;28;19922;-53
2022/06/29 11:17:39;;;;;;;8.75;2.00;;;17.80;99.90;;;;;;5027929;28;20124;-53
2022/06/29 11:20:06;;;;;;;5.68;1.80;;;17.80;99.90;;;;;;5023316;28;20034;-51
2022/06/29 11:22:33;;;;;;;4.93;1.70;;;17.90;99.90;;;;;;5027797;28;20425;-52
2022/06/29 11:25:02;;;;;;;6.47;1.75;;;17.90;99.90;;;;;;5027370;28;20036;-55
2022/06/29 11:27:29;;;;;;;5.60;1.85;;;18.10;99.90;;;;;;5021876;28;20042;-46
2022/06/29 11:29:55;;;;;;;5.65;1.83;;;18.10;99.90;;;;;;5025430;28;20092;-54
2022/06/29 11:32:22;;;;;;;5.72;1.55;;;18.20;99.90;;;;;;5018650;28;20046;-57
2022/06/29 11:34:49;;;;;;;5.78;2.47;;;18.30;99.90;;;;;;5030173;28;20041;-48
2022/06/29 11:37:17;;;;;;;4.90;1.88;;;18.50;99.90;;;;;;5032550;28;20118;-54
2022/06/29 11:39:44;;;;;;;4.72;1.60;;;18.70;99.90;;;;;;5030088;28;20087;-55
2022/06/29 11:44:56;;;;;;;7.00;1.88;;;19.00;99.90;;;;;;5032746;28;20040;-55
2022/06/29 11:47:23;;;;;;;4.00;1.48;;;19.20;99.90;;;;;;5033179;28;20041;-51
2022/06/29 11:49:50;;;;;;;4.63;1.38;;;19.30;99.90;;;;;;5029914;28;20056;-52
2022/06/29 11:52:17;;;;;;;3.08;1.10;;;19.40;99.90;;;;;;5014146;28;20046;-53
2022/06/29 11:54:44;;;;;;;3.38;1.20;;;19.40;99.90;;;;;;5022187;28;20514;-52
2022/06/29 11:57:12;;;;;;;3.83;1.10;;;19.50;99.90;;;;;;5033203;28;20065;-50
2022/06/29 11:59:39;;;;;;;3.65;1.10;;;19.60;99.90;;;;;;5027768;28;20045;-51
2022/06/29 12:02:06;;;;;;;7.05;1.73;;;19.80;99.90;;;;;;5020475;28;20049;-48
2022/06/29 12:04:33;;;;;;;4.93;1.30;;;20.00;99.90;;;;;;5029937;28;20530;-48
2022/06/29 12:07:00;;;;;;;3.45;0.98;;;20.20;99.90;;;;;;5026142;28;20038;-55
2022/06/29 12:09:27;;;;;;;2.92;0.93;;;20.30;99.90;;;;;;5026757;28;20038;-54
2022/06/29 12:11:54;;;;;;;2.70;1.02;;;20.50;99.90;;;;;;5024231;28;20388;-55
2022/06/29 12:14:20;;;;;;;3.95;1.20;;;20.60;99.90;;;;;;5026708;28;20133;-52
2022/06/29 12:16:47;;;;;;;3.50;0.95;;;20.60;99.90;;;;;;5030242;28;20041;-55
2022/06/29 12:19:14;;;;;;;2.05;0.70;;;20.50;99.40;;;;;;5022706;28;20053;-52
2022/06/29 12:21:41;;;;;;;1.92;0.85;;;20.40;98.60;;;;;;5016171;28;20037;-53
2022/06/29 12:24:07;;;;;;;3.58;0.95;;;20.50;99.10;;;;;;5021614;28;20041;-56
2022/06/29 12:26:34;;;;;;;4.18;1.10;;;20.40;98.70;;;;;;5015226;28;20037;-55
2022/06/29 12:29:01;;;;;;;3.28;1.10;;;20.50;99.90;;;;;;5026464;28;20084;-54
2022/06/29 12:31:28;;;;;;;4.35;1.33;;;20.60;98.90;;;;;;5022744;28;20042;-53
2022/06/29 12:33:55;;;;;;;2.70;0.90;;;20.60;98.70;;;;;;5016425;28;20386;-52
2022/06/29 12:36:41;;;;;;;3.10;1.00;;;20.50;98.50;;;;;;5013347;28;20435;-55
2022/06/29 12:39:08;;;;;;;4.50;1.38;;;20.50;98.40;;;;;;5013070;28;20551;-51
2022/06/29 12:41:35;;;;;;;5.20;1.25;;;20.50;98.40;;;;;;5015630;28;20124;-53
2022/06/29 12:44:02;;;;;;;3.10;1.10;;;20.50;98.00;;;;;;5015430;28;20033;-55
2022/06/29 12:46:29;;;;;;;5.43;1.30;;;20.60;97.90;;;;;;5024923;28;20048;-53
2022/06/29 12:48:56;;;;;;;2.75;1.20;;;20.80;98.40;;;;;;5023556;28;20132;-56
2022/06/29 12:51:23;;;;;;;4.82;1.52;;;21.00;98.20;;;;;;5025581;28;20049;-51
2022/06/29 12:53:50;;;;;;;4.35;1.23;;;21.00;96.60;;;;;;5015558;28;20910;-53
2022/06/29 12:56:17;;;;;;;3.53;1.35;;;21.10;96.20;;;;;;5013113;28;20042;-47
2022/06/29 12:58:47;;;;;;;8.02;1.38;;;21.10;95.90;;;;;;5013237;28;20092;-51
2022/06/29 13:01:14;;;;;;;6.75;1.48;;;21.10;95.60;;;;;;5013121;28;20493;-49
2022/06/29 13:03:41;;;;;;;6.05;1.63;;;21.20;95.20;;;;;;5013041;28;20473;-51
2022/06/29 13:06:08;;;;;;;4.55;1.23;;;21.30;95.00;;;;;;5017748;28;20189;-52
2022/06/29 13:08:35;;;;;;;5.85;1.30;;;21.40;94.60;;;;;;5013120;28;20041;-51
2022/06/29 13:11:01;;;;;;;2.90;1.23;;;21.40;94.70;;;;;;5012886;28;20100;-49
2022/06/29 13:13:29;;;;;;;3.25;1.10;;;21.50;94.70;;;;;;5012855;28;20477;-50
2022/06/29 13:15:56;;;;;;;2.80;1.23;;;21.50;95.10;;;;;;5015081;28;20046;-53
2022/06/29 13:18:23;;;;;;;5.05;1.27;;;21.50;94.90;;;;;;5019690;28;20399;-51
2022/06/29 13:20:49;;;;;;;6.82;1.42;;;21.40;94.30;;;;;;5032234;28;20448;-51
2022/06/29 13:23:17;;;;;;;6.35;1.50;;;21.40;94.90;;;;;;5016423;28;20041;-52
2022/06/29 13:25:44;;;;;;;3.50;1.20;;;21.50;95.10;;;;;;5019858;28;20042;-46
2022/06/29 13:28:10;;;;;;;6.43;1.75;;;21.60;94.70;;;;;;5028668;28;20045;-50
2022/06/29 13:30:38;;;;;;;5.95;1.92;;;21.70;94.40;;;;;;5035341;28;20485;-48
2022/06/29 13:33:05;;;;;;;5.55;1.98;;;21.70;94.00;;;;;;5039105;28;20046;-54
2022/06/29 13:35:32;;;;;;;7.30;1.92;;;21.70;93.50;;;;;;5018602;28;20045;-53
2022/06/29 13:37:58;;;;;;;6.28;2.00;;;21.50;93.70;;;;;;5022045;28;20562;-54
2022/06/29 13:40:25;;;;;;;7.28;1.90;;;21.60;93.90;;;;;;5016213;28;20596;-49
2022/06/29 13:42:52;;;;;;;5.72;1.60;;;21.50;94.10;;;;;;5016807;28;20042;-48
2022/06/29 13:45:32;;;;;;;6.55;1.60;;;21.50;92.90;;;;;;5016093;28;20034;-49
2022/06/29 13:47:59;;;;;;;5.63;1.77;;;21.60;93.20;;;;;;5016088;28;20113;-52
2022/06/29 13:50:26;;;;;;;5.32;1.73;;;21.70;92.70;;;;;;5018417;28;20038;-57
2022/06/29 13:52:53;;;;;;;4.97;1.95;;;21.70;92.20;;;;;;5044531;28;20396;-46
2022/06/29 13:55:20;;;;;;;6.78;1.75;;;21.70;92.10;;;;;;5018709;28;20050;-49
2022/06/29 13:57:47;;;;;;;5.78;1.60;;;21.70;91.50;;;;;;5021560;28;20447;-50
2022/06/29 14:00:14;;;;;;;6.10;2.00;;;21.80;92.50;;;;;;5028795;28;20042;-53
2022/06/29 14:02:41;;;;;;;7.35;2.03;;;21.90;91.60;;;;;;5023385;28;20045;-51
2022/06/29 14:05:08;;;;;;;6.65;2.28;;;21.90;91.30;;;;;;5015532;28;20125;-52
2022/06/29 14:07:35;;;;;;;7.60;2.13;;;21.80;91.10;;;;;;5016635;28;20120;-54
2022/06/29 14:10:22;;;;;;;8.15;2.30;;;21.80;91.70;;;;;;5028803;28;20053;-53
2022/06/29 14:12:49;;;;;;;7.03;1.95;;;21.80;90.80;;;;;;5034694;28;20091;-51
2022/06/29 14:15:15;;;;;;;7.68;2.03;;;21.90;90.10;;;;;;5035047;28;20037;-54
2022/06/29 14:17:42;;;;;;;5.97;2.05;;;21.90;90.00;;;;;;5034649;28;20042;-48
2022/06/29 14:20:09;;;;;;;7.85;2.10;;;22.00;90.70;;;;;;5022162;28;20048;-52
2022/06/29 14:22:35;;;;;;;8.10;2.33;;;22.10;87.80;;;;;;5025834;28;20500;-51
2022/06/29 14:25:02;;;;;;;6.60;2.10;;;22.00;86.30;;;;;;5028026;28;20045;-51
2022/06/29 14:27:29;;;;;;;7.90;2.00;;;22.10;86.90;;;;;;5014859;28;20451;-51
2022/06/29 14:29:56;;;;;;;6.50;2.08;;;22.20;87.10;;;;;;5015005;28;20054;-50
2022/06/29 14:32:23;;;;;;;8.00;2.05;;;22.20;86.60;;;;;;5015088;28;20563;-56
2022/06/29 14:34:53;;;;;;;7.65;2.13;;;22.30;86.40;;;;;;5032684;28;20045;-51
2022/06/29 14:37:19;;;;;;;10.02;2.80;;;22.30;87.50;;;;;;5014971;28;20038;-53
2022/06/29 14:39:46;;;;;;;5.22;1.70;;;22.50;87.50;;;;;;5027489;28;20038;-53
2022/06/29 14:42:13;;;;;;;7.65;2.08;;;22.60;85.60;;;;;;5034183;28;20049;-48
2022/06/29 14:44:40;;;;;;;7.30;1.85;;;22.60;84.00;;;;;;5023634;28;20049;-55
2022/06/29 14:47:06;;;;;;;9.05;2.10;;;22.60;84.20;;;;;;5033196;28;20037;-53
2022/06/29 14:49:33;;;;;;;6.45;2.03;;;22.40;82.70;;;;;;5027808;28;20045;-50
2022/06/29 14:52:00;;;;;;;6.90;1.95;;;22.40;83.00;;;;;;5033767;28;20091;-53
2022/06/29 14:54:27;;;;;;;7.05;1.75;;;22.50;83.10;;;;;;5033771;28;20112;-63
2022/06/29 14:56:54;;;;;;;7.22;1.90;;;22.50;83.70;;;;;;5033886;28;20436;-50
2022/06/29 14:59:37;;;;;;;8.80;2.05;;;22.40;83.10;;;;;;5033652;28;20037;-49
2022/06/29 15:02:04;;;;;;;8.23;1.90;;;22.40;84.10;;;;;;5033665;28;20064;-52
2022/06/29 15:04:31;;;;;;;7.68;2.08;;;22.30;83.50;;;;;;5033425;28;20042;-47
2022/06/29 15:07:00;;;;;;;7.13;1.83;;;22.20;84.50;;;;;;5033389;28;20045;-51
2022/06/29 15:09:32;;;;;;;7.93;2.33;;;22.10;84.30;;;;;;5033425;28;20041;-51
2022/06/29 15:12:00;;;;;;;8.35;2.20;;;22.10;84.80;;;;;;5033548;28;20045;-51
2022/06/29 15:14:27;;;;;;;6.82;2.10;;;22.20;85.40;;;;;;5032086;28;20421;-50
2022/06/29 15:16:54;;;;;;;7.57;2.13;;;22.20;84.50;;;;;;5033235;28;20045;-52
2022/06/29 15:19:21;;;;;;;6.10;2.13;;;22.20;82.80;;;;;;5033453;28;20041;-52
2022/06/29 15:21:49;;;;;;;5.57;1.98;;;22.20;82.50;;;;;;5033193;28;20120;-52
2022/06/29 15:24:15;;;;;;;5.63;1.55;;;22.30;83.00;;;;;;5033323;28;20038;-56
2022/06/29 15:26:42;;;;;;;7.85;2.30;;;22.30;83.10;;;;;;5033176;28;20033;-48
2022/06/29 15:29:09;;;;;;;6.63;1.92;;;22.20;83.30;;;;;;5033165;28;20452;-50
2022/06/29 15:31:36;;;;;;;10.32;2.45;;;22.30;83.30;;;;;;5033213;28;20050;-54
2022/06/29 15:39:34;;;;;;;10.52;2.17;;;22.60;83.00;;;;;;5026744;28;20041;-56
2022/06/29 15:42:01;;;;;;;8.77;2.15;;;22.60;82.00;;;;;;5033285;28;20080;-53
2022/06/29 15:44:28;;;;;;;8.55;2.17;;;22.60;83.10;;;;;;5033052;28;20041;-52
2022/06/29 15:46:55;;;;;;;6.63;2.03;;;22.70;82.70;;;;;;5025647;28;20054;-52
2022/06/29 15:49:22;;;;;;;8.55;2.08;;;23.20;83.50;;;;;;5023647;28;20076;-55
2022/06/29 15:51:49;;;;;;;7.88;2.15;;;23.50;81.40;;;;;;5031925;28;20045;-52
2022/06/29 15:57:01;;;;;;;7.15;1.70;;;23.40;78.90;;;;;;5012908;28;20050;-51
2022/06/29 15:59:28;;;;;;;6.72;1.70;;;23.20;77.80;;;;;;5028126;28;20046;-49
2022/06/29 16:01:55;;;;;;;7.78;2.25;;;23.20;79.20;;;;;;5022509;28;20037;-55
2022/06/29 16:04:22;;;;;;;6.15;1.70;;;23.40;77.70;;;;;;5012513;28;20042;-54
2022/06/29 16:06:48;;;;;;;7.65;1.88;;;23.80;75.30;;;;;;5013648;28;20042;-54
2022/06/29 16:09:15;;;;;;;5.85;1.80;;;24.10;74.00;;;;;;5013300;28;20084;-52
2022/06/29 16:14:28;;;;;;;7.70;1.90;;;24.60;73.00;;;;;;5013596;28;20042;-51
2022/06/29 16:16:55;;;;;;;8.25;2.00;;;24.90;74.20;;;;;;5013609;28;20046;-55
2022/06/29 16:19:21;;;;;;;5.75;1.80;;;25.10;73.40;;;;;;5013418;28;20495;-54
2022/06/29 16:22:05;;;;;;;8.55;2.03;;;25.20;73.40;;;;;;5026041;28;20041;-49
2022/06/29 16:24:32;;;;;;;6.15;1.95;;;25.20;73.50;;;;;;5013216;28;20092;-55
2022/06/29 16:26:59;;;;;;;8.77;2.67;;;25.30;73.10;;;;;;5013412;28;20046;-52
2022/06/29 16:29:26;;;;;;;8.15;2.05;;;25.30;71.70;;;;;;5012774;28;20089;-54
2022/06/29 16:31:52;;;;;;;6.88;2.17;;;25.30;74.00;;;;;;5012710;28;20046;-55
2022/06/29 16:34:19;;;;;;;6.72;2.13;;;25.20;74.30;;;;;;5012910;28;20053;-48
2022/06/29 16:36:46;;;;;;;8.43;2.60;;;25.20;75.50;;;;;;5013122;28;20038;-52
2022/06/29 16:39:13;;;;;;;11.20;2.78;;;25.10;75.80;;;;;;5013377;28;20049;-49
2022/06/29 16:41:41;;;;;;;6.22;2.22;;;24.90;75.10;;;;;;5014828;28;20454;-50
2022/06/29 16:44:08;;;;;;;5.47;2.08;;;24.80;75.60;;;;;;5013258;28;20096;-53
2022/06/29 16:46:35;;;;;;;5.70;1.88;;;24.60;74.30;;;;;;5012158;28;20049;-50
2022/06/29 16:49:02;;;;;;;7.72;2.20;;;24.50;74.90;;;;;;5013199;28;20045;-54
2022/06/29 16:51:42;;;;;;;8.27;2.22;;;24.60;74.10;;;;;;5029434;28;20435;-53
2022/06/29 16:54:25;;;;;;;7.22;1.75;;;24.70;74.30;;;;;;5020030;28;20038;-49
2022/06/29 16:56:52;;;;;;;7.60;1.75;;;24.60;74.60;;;;;;5017071;28;20481;-54
2022/06/29 16:59:19;;;;;;;5.35;1.98;;;24.40;74.30;;;;;;5016925;28;20046;-52
2022/06/29 17:01:48;;;;;;;6.18;1.73;;;24.30;75.00;;;;;;5016619;28;20077;-55
2022/06/29 17:04:15;;;;;;;7.45;1.83;;;24.50;74.70;;;;;;5016813;28;20045;-49
2022/06/29 17:06:42;;;;;;;9.23;2.17;;;24.60;74.20;;;;;;5017107;28;20046;-53
2022/06/29 17:09:08;;;;;;;4.15;1.50;;;24.50;73.90;;;;;;5033215;28;20060;-55
2022/06/29 17:11:35;;;;;;;7.13;1.63;;;24.10;72.20;;;;;;5036182;28;20059;-50
2022/06/29 17:14:02;;;;;;;6.05;1.73;;;23.80;73.20;;;;;;5035541;28;20045;-53
2022/06/29 17:16:29;;;;;;;6.68;1.98;;;23.50;74.70;;;;;;5034385;28;20042;-53
2022/06/29 17:18:56;;;;;;;6.72;2.13;;;23.30;74.80;;;;;;5020713;28;20042;-54
2022/06/29 17:21:23;;;;;;;8.30;1.70;;;23.30;73.90;;;;;;5033755;28;20136;-55
2022/06/29 17:23:50;;;;;;;5.00;1.30;;;23.20;75.10;;;;;;5035737;28;20503;-52
2022/06/29 17:26:17;;;;;;;7.03;1.52;;;23.10;75.00;;;;;;5031850;28;20041;-52
2022/06/29 17:28:43;;;;;;;9.05;2.00;;;23.10;75.10;;;;;;5035423;28;20056;-52
2022/06/29 17:31:10;;;;;;;5.38;1.60;;;23.30;74.60;;;;;;5035241;28;20188;-54
2022/06/29 17:33:37;;;;;;;6.45;1.85;;;23.50;74.40;;;;;;5035623;28;20408;-51
2022/06/29 17:36:04;;;;;;;9.43;2.05;;;23.50;74.40;;;;;;5035693;28;20045;-53
2022/06/29 17:38:30;;;;;;;6.60;2.10;;;23.90;75.00;;;;;;5035500;28;20046;-54
2022/06/29 17:40:57;;;;;;;7.68;2.42;;;24.30;74.70;;;;;;5035344;28;20082;-53
2022/06/29 17:43:24;;;;;;;8.73;1.90;;;24.30;73.40;;;;;;5035447;28;20053;-53
2022/06/29 17:45:51;;;;;;;7.85;2.05;;;24.10;72.90;;;;;;5034797;28;20045;-56
2022/06/29 17:48:17;;;;;;;4.97;1.70;;;23.90;74.40;;;;;;5035652;28;20041;-54
2022/06/29 17:50:44;;;;;;;9.25;1.80;;;23.70;73.80;;;;;;5035472;28;20041;-50
2022/06/29 17:53:11;;;;;;;7.35;2.03;;;23.70;75.00;;;;;;5035510;28;20442;-51
2022/06/29 17:55:38;;;;;;;8.63;1.90;;;23.50;75.00;;;;;;5035215;28;20049;-50
2022/06/29 17:58:06;;;;;;;6.15;2.10;;;23.30;76.60;;;;;;5035304;28;20068;-47
2022/06/29 18:00:33;;;;;;;7.47;1.98;;;23.40;76.10;;;;;;5034104;28;20083;-49
2022/06/29 18:03:00;;;;;;;6.70;2.08;;;23.40;74.10;;;;;;5035034;28;20124;-52
2022/06/29 18:05:27;;;;;;;7.05;1.83;;;23.50;74.00;;;;;;5034430;28;20091;-50
2022/06/29 18:07:54;;;;;;;7.15;1.88;;;23.80;74.40;;;;;;5034959;28;20037;-51
2022/06/29 18:10:20;;;;;;;5.80;1.60;;;24.10;72.80;;;;;;5034055;28;20049;-55
2022/06/29 18:12:47;;;;;;;5.15;1.63;;;24.20;71.90;;;;;;5035230;28;20061;-55
2022/06/29 18:15:17;;;;;;;7.03;1.90;;;24.50;73.00;;;;;;5027695;28;20091;-53
2022/06/29 18:17:43;;;;;;;6.05;1.85;;;24.90;71.60;;;;;;5035039;28;20045;-50
2022/06/29 18:20:10;;;;;;;9.20;2.03;;;25.20;71.10;;;;;;5016139;28;20042;-52
2022/06/29 18:22:37;;;;;;;9.32;1.92;;;25.50;70.80;;;;;;5034254;28;20052;-56
2022/06/29 18:25:04;;;;;;;8.40;2.10;;;25.70;69.70;;;;;;5034773;28;20476;-56
2022/06/29 18:27:30;;;;;;;6.95;1.88;;;25.90;69.60;;;;;;5034833;28;20045;-51
2022/06/29 18:29:57;;;;;;;6.28;1.85;;;26.10;69.30;;;;;;5034002;28;20436;-53
2022/06/29 18:32:24;;;;;;;8.07;2.08;;;26.00;69.70;;;;;;5021276;28;20037;-56
2022/06/29 18:34:51;;;;;;;6.55;1.90;;;26.00;68.40;;;;;;5015443;28;20049;-57
2022/06/29 18:37:17;;;;;;;6.47;1.80;;;25.80;69.40;;;;;;5015647;28;20046;-56
2022/06/29 18:39:44;;;;;;;11.27;1.90;;;25.60;68.70;;;;;;5030622;28;20558;-53
2022/06/29 18:42:11;;;;;;;5.78;1.73;;;25.40;67.70;;;;;;5034452;28;20101;-56
2022/06/29 18:44:38;;;;;;;8.13;1.95;;;25.00;68.00;;;;;;5033907;28;20095;-55
2022/06/29 18:47:05;;;;;;;6.57;1.60;;;24.40;68.70;;;;;;5034328;28;20059;-50
2022/06/29 18:49:31;;;;;;;7.55;1.70;;;23.90;70.70;;;;;;5034177;28;20041;-54
2022/06/29 18:51:58;;;;;;;5.43;1.25;;;23.50;71.30;;;;;;5034215;28;20361;-51
2022/06/29 18:54:25;;;;;;;5.07;1.63;;;23.30;72.50;;;;;;5034041;28;20085;-51
2022/06/29 18:56:52;;;;;;;5.18;1.58;;;23.10;72.70;;;;;;5034151;28;20046;-55
2022/06/29 18:59:19;;;;;;;6.82;1.85;;;22.90;72.90;;;;;;5034044;28;20091;-52
2022/06/29 19:01:46;;;;;;;7.28;1.67;;;22.70;73.30;;;;;;5033995;28;20049;-50
2022/06/29 19:04:12;;;;;;;6.78;1.70;;;22.50;73.80;;;;;;5033973;28;20037;-54
2022/06/29 19:06:40;;;;;;;7.03;1.90;;;22.30;75.00;;;;;;5023430;28;20065;-55
2022/06/29 19:09:07;;;;;;;8.95;2.22;;;22.10;75.80;;;;;;5031063;28;20045;-53
2022/06/29 19:11:55;;;;;;;8.82;2.10;;;21.90;76.40;;;;;;5024237;28;20481;-54
2022/06/29 19:14:22;;;;;;;9.20;2.17;;;21.80;76.70;;;;;;5014158;28;20046;-56
2022/06/29 19:16:49;;;;;;;6.80;2.05;;;21.60;77.30;;;;;;5024969;28;20038;-52
2022/06/29 19:19:16;;;;;;;9.05;2.33;;;21.40;78.20;;;;;;5033994;28;20373;-51
2022/06/29 19:21:43;;;;;;;7.40;1.70;;;21.30;77.60;;;;;;5033757;28;20473;-53
2022/06/29 19:24:09;;;;;;;7.97;1.90;;;21.10;78.40;;;;;;5033516;28;20048;-53
2022/06/29 19:26:36;;;;;;;10.07;2.20;;;20.90;78.50;;;;;;5016233;28;20042;-55
2022/06/29 19:29:03;;;;;;;9.52;2.00;;;20.80;78.20;;;;;;5014449;28;20089;-52
2022/06/29 19:31:30;;;;;;;6.88;1.73;;;20.60;78.40;;;;;;5014404;28;20038;-50
2022/06/29 19:33:57;;;;;;;8.25;1.90;;;20.50;79.40;;;;;;5019985;28;20045;-51
2022/06/29 19:36:25;;;;;;;9.13;1.88;;;20.40;78.90;;;;;;5033332;28;20099;-58
2022/06/29 19:38:52;;;;;;;6.80;1.70;;;20.30;79.20;;;;;;5033553;28;20042;-51
2022/06/29 19:41:22;;;;;;;9.23;1.90;;;20.10;80.00;;;;;;5032364;28;20042;-53
2022/06/29 19:43:50;;;;;;;7.03;1.52;;;20.10;80.90;;;;;;5032604;28;20111;-53
2022/06/29 19:46:17;;;;;;;8.82;1.80;;;20.10;80.30;;;;;;5033302;28;20053;-51
2022/06/29 19:48:47;;;;;;;7.05;1.58;;;20.00;80.70;;;;;;5033281;28;20045;-56
2022/06/29 19:51:14;;;;;;;7.63;1.88;;;20.00;81.10;;;;;;5032709;28;20041;-51
2022/06/29 19:53:41;;;;;;;4.63;1.42;;;19.90;81.30;;;;;;5022062;28;20057;-54
2022/06/29 19:56:07;;;;;;;7.30;1.70;;;19.90;82.90;;;;;;5017645;28;20386;-56
2022/06/29 19:58:37;;;;;;;7.30;2.28;;;19.70;82.10;;;;;;5014264;28;20069;-53
2022/06/29 20:01:04;;;;;;;10.70;2.53;;;19.70;83.10;;;;;;5028759;28;20048;-50
2022/06/29 20:03:31;;;;;;;8.05;1.95;;;19.60;83.00;;;;;;5032803;28;20044;-53
2022/06/29 20:05:58;;;;;;;7.43;1.77;;;19.50;83.00;;;;;;5032181;28;20112;-50
2022/06/29 20:08:25;;;;;;;8.43;2.13;;;19.50;83.80;;;;;;5031842;28;20461;-51
2022/06/29 20:10:52;;;;;;;6.32;1.85;;;19.50;84.00;;;;;;5027795;28;20042;-47
2022/06/29 20:13:39;;;;;;;6.93;1.65;;;19.40;83.90;;;;;;5013650;28;20050;-53
2022/06/29 20:16:05;;;;;;;8.88;2.20;;;19.30;83.90;;;;;;5026191;28;20515;-51
2022/06/29 20:18:33;;;;;;;6.35;1.65;;;19.30;84.60;;;;;;5032896;28;20461;-49
2022/06/29 20:20:59;;;;;;;7.72;1.75;;;19.20;84.50;;;;;;5032183;28;20029;-49
2022/06/29 20:23:26;;;;;;;10.93;2.33;;;19.20;85.40;;;;;;5028156;28;20382;-51
2022/06/29 20:25:53;;;;;;;9.93;2.22;;;19.10;86.10;;;;;;5013325;28;20103;-54
2022/06/29 20:28:20;;;;;;;6.47;1.60;;;19.10;85.80;;;;;;5013135;28;20045;-51
2022/06/29 20:30:46;;;;;;;8.88;2.00;;;19.00;85.90;;;;;;5028971;28;20091;-54
2022/06/29 20:33:13;;;;;;;8.18;1.70;;;19.00;86.00;;;;;;5031870;28;20049;-54
2022/06/29 20:35:40;;;;;;;9.57;2.05;;;18.90;86.50;;;;;;5032255;28;20064;-52
2022/06/29 20:38:07;;;;;;;9.80;2.15;;;18.90;86.90;;;;;;5032603;28;20484;-52
2022/06/29 20:40:33;;;;;;;11.40;2.10;;;18.90;87.10;;;;;;5032271;28;20042;-51
2022/06/29 20:43:02;;;;;;;11.48;2.30;;;18.80;87.10;;;;;;5032657;28;20041;-53
2022/06/29 20:45:28;;;;;;;7.32;1.90;;;18.70;87.80;;;;;;5027119;28;20416;-54
2022/06/29 20:47:55;;;;;;;8.93;1.98;;;18.70;87.80;;;;;;5012485;28;20516;-49
2022/06/29 20:50:22;;;;;;;6.82;1.92;;;18.70;88.00;;;;;;5017706;28;20495;-52
2022/06/29 20:52:52;;;;;;;9.30;2.42;;;18.70;88.30;;;;;;5021501;28;20088;-55
2022/06/29 20:55:19;;;;;;;7.93;2.05;;;18.70;88.70;;;;;;5013418;28;20084;-54
2022/06/29 20:57:48;;;;;;;9.02;2.50;;;18.60;89.00;;;;;;5013388;28;20107;-52
2022/06/29 21:00:15;;;;;;;9.13;2.40;;;18.60;89.10;;;;;;5012304;28;20056;-53
2022/06/29 21:02:42;;;;;;;9.52;2.35;;;18.60;89.70;;;;;;5013749;28;20444;-54
2022/06/29 21:05:09;;;;;;;12.13;2.90;;;18.60;89.90;;;;;;5013415;28;20042;-53
2022/06/29 21:07:36;;;;;;;8.25;2.20;;;18.50;90.10;;;;;;5013482;28;20124;-49
2022/06/29 21:10:03;;;;;;;11.07;2.95;;;18.50;90.30;;;;;;5018917;28;20447;-53
2022/06/29 21:12:30;;;;;;;8.25;2.20;;;18.40;90.60;;;;;;5032126;28;20491;-52
2022/06/29 21:14:56;;;;;;;10.48;3.10;;;18.40;90.90;;;;;;5032040;28;20049;-57
2022/06/29 21:17:23;;;;;;;12.20;2.53;;;18.40;91.20;;;;;;5032172;28;20050;-54
2022/06/29 21:19:50;;;;;;;10.95;2.60;;;18.40;91.30;;;;;;5031577;28;20046;-51
2022/06/29 21:22:23;;;;;;;11.25;2.67;;;18.30;91.60;;;;;;5028394;28;20137;-51
2022/06/29 21:24:50;;;;;;;11.63;2.60;;;18.30;91.90;;;;;;5031681;28;20069;-51
2022/06/29 21:27:16;;;;;;;8.75;2.55;;;18.20;92.20;;;;;;5031884;28;20041;-52
2022/06/29 21:29:43;;;;;;;11.60;2.67;;;18.20;92.00;;;;;;5031915;28;20081;-50
2022/06/29 21:32:10;;;;;;;10.18;2.90;;;18.10;92.00;;;;;;5020443;28;20045;-51
2022/06/29 21:34:37;;;;;;;10.75;2.53;;;18.10;92.10;;;;;;5012611;28;20052;-50
2022/06/29 21:37:03;;;;;;;12.10;2.92;;;18.10;92.30;;;;;;5015070;28;20100;-51
2022/06/29 21:39:31;;;;;;;12.57;2.80;;;18.10;92.40;;;;;;5016358;28;20042;-50
2022/06/29 21:41:58;;;;;;;11.73;3.03;;;18.00;92.30;;;;;;5016150;28;20037;-51
2022/06/29 21:44:25;;;;;;;12.10;2.80;;;18.00;92.50;;;;;;5016197;28;20052;-51
2022/06/29 21:46:52;;;;;;;12.80;3.10;;;17.90;92.60;;;;;;5016271;28;20445;-49